Time;durP1;ratioP1;P1;durP2;ratioP2;P2;SDS_P1;SDS_P2;PMS_P1;PMS_P2;Temp;Humidity;BMP_temperature;BMP_pressure;BME280_temperature;BME280_humidity;BME280_pressure;Samples;Min_cycle;Max_cycle;Signal;HPM_P1;HPM_P2
2021/09/28 00:00:51;;;;;;;3.90;2.50;;;;;;;9.29;74.31;99631.82;112413;1190;60882;-24
2021/09/28 00:03:20;;;;;;;4.10;2.70;;;;;;;8.98;75.71;99630.76;112481;1190;61595;-24
2021/09/28 00:05:49;;;;;;;3.10;1.40;;;;;;;8.79;76.59;99632.64;112512;1192;75442;-23
2021/09/28 00:08:19;;;;;;;4.00;2.10;;;;;;;9.29;75.26;99634.63;112488;1190;74614;-24
2021/09/28 00:10:47;;;;;;;3.60;2.40;;;;;;;9.65;73.50;99637.23;112470;1190;73736;-24
2021/09/28 00:13:16;;;;;;;7.00;2.50;;;;;;;9.60;73.90;99636.36;112462;1190;60821;-24
2021/09/28 00:15:45;;;;;;;4.60;2.10;;;;;;;9.57;73.65;99632.57;112497;1190;60815;-24
2021/09/28 00:18:26;;;;;;;5.00;2.30;;;;;;;9.11;75.03;99631.11;112540;1190;75221;-21
2021/09/28 00:20:54;;;;;;;6.90;2.50;;;;;;;9.00;75.18;99633.92;112460;1190;75648;-22
2021/09/28 00:23:22;;;;;;;4.50;2.50;;;;;;;8.88;74.96;99639.89;112423;1190;73050;-22
2021/09/28 00:25:51;;;;;;;3.50;2.00;;;;;;;8.76;75.71;99642.02;112368;1190;61900;-22
2021/09/28 00:28:19;;;;;;;2.80;1.70;;;;;;;9.16;75.44;99640.69;112496;1190;61628;-21
2021/09/28 00:30:48;;;;;;;3.90;2.20;;;;;;;9.67;73.39;99639.71;112471;1190;75046;-22
2021/09/28 00:33:17;;;;;;;5.40;2.20;;;;;;;9.75;73.02;99633.79;112453;1190;74916;-22
2021/09/28 00:36:09;;;;;;;5.50;2.50;;;;;;;9.49;73.69;99632.37;112456;1190;74041;-22
2021/09/28 00:38:38;;;;;;;6.60;2.90;;;;;;;9.23;74.35;99629.48;112453;1190;60816;-22
2021/09/28 00:41:07;;;;;;;5.60;2.30;;;;;;;9.06;74.48;99634.23;112391;1193;60857;-21
2021/09/28 00:43:49;;;;;;;4.50;2.90;;;;;;;8.78;75.78;99630.98;112483;1192;73817;-24
2021/09/28 00:46:17;;;;;;;3.20;1.60;;;;;;;8.62;76.74;99629.41;112285;1193;75708;-22
2021/09/28 00:48:46;;;;;;;3.10;1.80;;;;;;;9.14;75.60;99629.73;112497;1190;73713;-22
2021/09/28 00:51:15;;;;;;;5.10;2.30;;;;;;;9.76;73.63;99621.91;112460;1190;60860;-22
2021/09/28 00:53:44;;;;;;;4.00;2.10;;;;;;;9.86;72.70;99624.21;112473;1190;62095;-22
2021/09/28 00:56:14;;;;;;;2.90;1.70;;;;;;;9.66;72.80;99625.88;112544;1190;75385;-23
2021/09/28 00:58:44;;;;;;;4.60;2.00;;;;;;;9.41;73.48;99626.55;112399;1190;75616;-24
2021/09/28 01:01:14;;;;;;;5.10;1.90;;;;;;;9.04;75.26;99626.73;112443;1190;73977;-23
2021/09/28 01:03:43;;;;;;;4.40;2.30;;;;;;;8.63;76.95;99630.73;112441;1190;61769;-23
2021/09/28 01:06:12;;;;;;;2.70;1.50;;;;;;;8.43;77.89;99632.83;112499;1190;60770;-23
2021/09/28 01:08:40;;;;;;;4.90;1.40;;;;;;;8.88;76.80;99627.92;112499;1190;75167;-22
2021/09/28 01:11:09;;;;;;;3.40;2.00;;;;;;;9.52;74.40;99630.13;112543;1190;75610;-22
2021/09/28 01:13:57;;;;;;;5.70;2.50;;;;;;;9.41;74.26;99626.33;112452;1190;73486;-22
2021/09/28 01:16:25;;;;;;;3.60;2.10;;;;;;;9.09;75.16;99627.08;112426;1190;61576;-21
2021/09/28 01:18:53;;;;;;;7.70;2.40;;;;;;;8.94;75.78;99628.61;112412;1190;60828;-22
2021/09/28 01:21:24;;;;;;;5.10;2.00;;;;;;;8.64;77.13;99627.04;112490;1190;74949;-21
2021/09/28 01:23:52;;;;;;;2.90;2.00;;;;;;;8.45;77.79;99629.40;112453;1190;75614;-22
2021/09/28 01:26:24;;;;;;;6.30;1.40;;;;;;;8.25;78.80;99627.57;112475;1190;73063;-22
2021/09/28 01:28:53;;;;;;;5.30;2.20;;;;;;;8.65;77.78;99628.17;112445;1190;60815;-22
2021/09/28 01:31:25;;;;;;;2.30;1.70;;;;;;;9.06;76.31;99625.08;112471;1190;60819;-22
2021/09/28 01:33:55;;;;;;;4.00;2.10;;;;;;;9.29;75.09;99625.39;112477;1192;75602;-23
2021/09/28 01:36:24;;;;;;;2.30;1.70;;;;;;;9.16;75.18;99626.61;112427;1190;75741;-23
2021/09/28 01:38:59;;;;;;;3.90;1.80;;;;;;;8.62;77.52;99629.97;112438;1190;73278;-23
2021/09/28 01:41:27;;;;;;;3.90;2.20;;;;;;;8.39;78.31;99625.85;112446;1190;61289;-23
2021/09/28 01:44:33;;;;;;;2.40;1.20;;;;;;;8.24;79.21;99628.30;112464;1190;61161;-21
2021/09/28 01:47:02;;;;;;;3.70;1.70;;;;;;;8.88;77.09;99624.14;112101;1193;73977;-22
2021/09/28 01:49:34;;;;;;;3.60;1.90;;;;;;;9.35;75.15;99625.75;112090;1193;74372;-22
2021/09/28 01:52:02;;;;;;;8.10;1.70;;;;;;;9.27;75.01;99626.59;112025;1193;73666;-22
2021/09/28 01:54:32;;;;;;;6.40;2.30;;;;;;;9.04;75.85;99628.81;111978;1193;61800;-22
2021/09/28 01:57:00;;;;;;;3.10;1.60;;;;;;;8.72;77.14;99629.85;112051;1193;60930;-22
2021/09/28 01:59:29;;;;;;;4.60;2.20;;;;;;;8.52;77.75;99634.19;112120;1193;75140;-22
2021/09/28 02:01:58;;;;;;;1.90;1.50;;;;;;;8.48;77.94;99629.59;112088;1196;75845;-22
2021/09/28 02:04:34;;;;;;;7.00;1.80;;;;;;;8.94;76.90;99626.36;112038;1193;73803;-23
2021/09/28 02:07:03;;;;;;;5.60;1.90;;;;;;;9.36;75.17;99628.11;112091;1193;60815;-24
2021/09/28 02:09:41;;;;;;;4.10;1.90;;;;;;;9.39;74.62;99624.61;112113;1193;60891;-22
2021/09/28 02:12:10;;;;;;;3.00;1.90;;;;;;;9.21;75.13;99624.03;112099;1193;74896;-22
2021/09/28 02:14:38;;;;;;;2.70;1.80;;;;;;;8.93;76.33;99623.62;112090;1193;73752;-22
2021/09/28 02:17:07;;;;;;;4.20;2.20;;;;;;;8.75;76.84;99626.50;112087;1193;73617;-23
2021/09/28 02:19:37;;;;;;;3.40;1.60;;;;;;;8.58;77.77;99631.77;112080;1193;60841;-22
2021/09/28 02:22:05;;;;;;;2.90;1.90;;;;;;;9.04;76.67;99628.45;112029;1193;61408;-22
2021/09/28 02:24:34;;;;;;;3.10;1.90;;;;;;;9.67;74.77;99629.68;112381;1192;74976;-22
2021/09/28 02:27:03;;;;;;;2.80;2.00;;;;;;;9.60;73.81;99629.05;112480;1190;74714;-22
2021/09/28 02:29:31;;;;;;;5.20;2.00;;;;;;;9.44;74.44;99631.85;112518;1190;72822;-22
2021/09/28 02:31:59;;;;;;;2.60;2.00;;;;;;;9.21;75.25;99630.48;112420;1190;60838;-22
2021/09/28 02:34:28;;;;;;;5.20;1.80;;;;;;;8.77;77.18;99634.17;112420;1190;60892;-22
2021/09/28 02:36:57;;;;;;;2.00;1.30;;;;;;;8.73;77.39;99637.55;112472;1190;75243;-22
2021/09/28 02:39:25;;;;;;;2.90;1.60;;;;;;;8.92;77.09;99633.04;112531;1190;74640;-22
2021/09/28 02:41:54;;;;;;;3.80;1.80;;;;;;;9.43;75.43;99629.85;112484;1193;72754;-22
2021/09/28 02:44:22;;;;;;;3.50;1.80;;;;;;;9.35;75.23;99632.52;112450;1190;60793;-22
2021/09/28 02:46:50;;;;;;;3.90;1.80;;;;;;;8.96;76.69;99629.69;112452;1193;61468;-22
2021/09/28 02:49:19;;;;;;;1.90;1.70;;;;;;;8.65;78.20;99634.59;112516;1190;75158;-22
2021/09/28 02:51:58;;;;;;;2.00;1.60;;;;;;;8.52;78.60;99637.85;112450;1190;75605;-22
2021/09/28 02:54:27;;;;;;;3.80;1.60;;;;;;;8.47;78.77;99634.68;112490;1190;73007;-22
2021/09/28 02:56:55;;;;;;;2.30;1.40;;;;;;;8.81;77.88;99633.42;112445;1193;61477;-22
2021/09/28 02:59:23;;;;;;;3.40;1.60;;;;;;;9.17;76.18;99633.14;112491;1193;60818;-22
2021/09/28 03:01:51;;;;;;;3.60;1.70;;;;;;;9.30;75.93;99630.02;112545;1193;73454;-22
2021/09/28 03:04:20;;;;;;;7.30;1.70;;;;;;;9.37;75.34;99630.63;112485;1192;76223;-22
2021/09/28 03:06:49;;;;;;;4.10;1.60;;;;;;;9.18;75.72;99630.65;112471;1193;73826;-22
2021/09/28 03:09:17;;;;;;;5.50;1.70;;;;;;;8.95;76.28;99633.04;112484;1190;61373;-21
2021/09/28 03:11:45;;;;;;;3.10;2.00;;;;;;;8.65;77.73;99637.04;112472;1191;60846;-23
2021/09/28 03:14:14;;;;;;;6.30;1.50;;;;;;;8.29;79.70;99636.84;112462;1190;75300;-22
2021/09/28 03:16:43;;;;;;;2.90;1.60;;;;;;;8.77;78.37;99631.73;112443;1190;74575;-20
2021/09/28 03:19:11;;;;;;;3.50;2.00;;;;;;;9.28;76.20;99634.35;112331;1190;73110;-24
2021/09/28 03:21:48;;;;;;;3.90;2.10;;;;;;;9.13;76.44;99635.00;112342;1190;61017;-20
2021/09/28 03:24:17;;;;;;;4.10;1.90;;;;;;;9.00;76.78;99635.95;112476;1190;60831;-24
2021/09/28 03:26:45;;;;;;;6.10;2.70;;;;;;;8.67;78.04;99637.89;112420;1193;75296;-23
2021/09/28 03:29:14;;;;;;;4.00;1.90;;;;;;;8.37;79.59;99640.15;112476;1190;74716;-23
2021/09/28 03:31:42;;;;;;;2.80;1.30;;;;;;;8.35;79.73;99639.07;112465;1192;73991;-23
2021/09/28 03:34:11;;;;;;;3.70;1.50;;;;;;;8.74;78.73;99639.77;112393;1191;60905;-23
2021/09/28 03:36:41;;;;;;;2.50;1.70;;;;;;;9.18;76.74;99639.15;112505;1190;60972;-23
2021/09/28 03:39:11;;;;;;;2.60;2.00;;;;;;;9.04;76.83;99643.48;112419;1190;75200;-23
2021/09/28 03:41:40;;;;;;;3.00;2.00;;;;;;;8.68;78.56;99649.83;112357;1190;75367;-24
2021/09/28 03:44:08;;;;;;;2.90;1.80;;;;;;;8.48;79.32;99646.05;112482;1193;73990;-24
2021/09/28 03:46:36;;;;;;;2.80;2.10;;;;;;;8.36;79.86;99647.98;112397;1190;60809;-24
2021/09/28 03:49:05;;;;;;;2.80;1.20;;;;;;;8.27;80.19;99648.70;112534;1190;60814;-24
2021/09/28 03:51:34;;;;;;;5.50;1.50;;;;;;;8.66;79.16;99643.88;112544;1190;75281;-24
2021/09/28 03:54:08;;;;;;;4.50;2.00;;;;;;;9.17;76.80;99643.71;112496;1190;74763;-22
2021/09/28 03:56:37;;;;;;;3.20;1.80;;;;;;;9.14;76.65;99642.20;112468;1190;73214;-22
2021/09/28 03:59:05;;;;;;;3.70;1.90;;;;;;;8.91;77.42;99645.55;112523;1190;61412;-22
2021/09/28 04:01:34;;;;;;;3.60;2.00;;;;;;;8.46;79.43;99646.84;112536;1190;60812;-23
2021/09/28 04:04:04;;;;;;;7.30;2.80;;;;;;;8.48;79.28;99649.86;112448;1190;74979;-21
2021/09/28 04:06:32;;;;;;;1.90;1.70;;;;;;;8.09;81.23;99649.27;112447;1190;76128;-22
2021/09/28 04:09:02;;;;;;;3.30;1.90;;;;;;;8.51;79.80;99650.70;112482;1190;73439;-22
2021/09/28 04:11:30;;;;;;;8.10;2.00;;;;;;;8.93;77.85;99644.09;112450;1190;60834;-24
2021/09/28 04:13:59;;;;;;;6.00;2.70;;;;;;;8.91;77.93;99645.88;112483;1190;60837;-22
2021/09/28 04:16:32;;;;;;;5.10;2.50;;;;;;;8.90;77.88;99641.98;112427;1193;74960;-23
2021/09/28 04:19:01;;;;;;;5.50;3.50;;;;;;;8.78;78.36;99642.60;112509;1190;75913;-23
2021/09/28 04:21:30;;;;;;;9.40;3.90;;;;;;;8.44;79.59;99646.45;112487;1190;73417;-22
2021/09/28 04:23:59;;;;;;;5.70;2.60;;;;;;;8.38;80.09;99646.45;112570;1190;61866;-22
2021/09/28 04:26:28;;;;;;;9.00;3.20;;;;;;;8.87;78.50;99644.42;112519;1193;60829;-23
2021/09/28 04:28:56;;;;;;;10.60;5.00;;;;;;;9.34;76.41;99640.37;112517;1190;75177;-23
2021/09/28 04:31:24;;;;;;;19.40;8.60;;;;;;;9.50;75.96;99641.88;112500;1190;75653;-22
2021/09/28 04:33:53;;;;;;;8.20;5.00;;;;;;;9.29;76.45;99649.14;112437;1192;72243;-23
2021/09/28 04:36:22;;;;;;;7.40;4.50;;;;;;;9.06;76.90;99646.70;112488;1190;60828;-23
2021/09/28 04:38:51;;;;;;;8.60;5.20;;;;;;;8.92;77.05;99648.46;112588;1190;60799;-24
2021/09/28 04:41:19;;;;;;;6.40;3.60;;;;;;;8.78;78.26;99652.45;112501;1191;74793;-23
2021/09/28 04:43:49;;;;;;;8.50;4.40;;;;;;;9.11;77.51;99649.51;112488;1190;75325;-22
2021/09/28 04:46:19;;;;;;;9.60;5.30;;;;;;;9.73;75.80;99654.05;112398;1190;73004;-22
2021/09/28 04:48:47;;;;;;;6.30;4.10;;;;;;;9.77;74.93;99658.76;112445;1190;60822;-22
2021/09/28 04:51:16;;;;;;;11.70;3.50;;;;;;;9.29;76.35;99661.12;112208;1193;60957;-22
2021/09/28 04:53:44;;;;;;;12.90;5.20;;;;;;;8.99;77.72;99666.03;112515;1191;72669;-22
2021/09/28 04:56:13;;;;;;;31.70;9.40;;;;;;;8.71;79.16;99666.61;112563;1190;75634;-22
2021/09/28 04:58:41;;;;;;;16.80;4.60;;;;;;;8.66;79.43;99666.71;112519;1191;74028;-22
2021/09/28 05:01:16;;;;;;;17.90;6.40;;;;;;;9.03;78.33;99667.28;112500;1190;61496;-22
2021/09/28 05:03:45;;;;;;;34.00;9.20;;;;;;;9.42;76.95;99670.86;112227;1192;60821;-22
2021/09/28 05:06:13;;;;;;;19.60;6.10;;;;;;;9.59;76.09;99669.56;112469;1193;75206;-21
2021/09/28 05:08:54;;;;;;;14.70;5.60;;;;;;;9.41;76.67;99670.23;112520;1190;76415;-22
2021/09/28 05:11:24;;;;;;;6.20;3.00;;;;;;;9.27;77.17;99674.23;112431;1190;73177;-22
2021/09/28 05:13:52;;;;;;;12.90;5.60;;;;;;;9.05;77.93;99675.10;112470;1190;61916;-22
2021/09/28 05:16:20;;;;;;;5.70;2.80;;;;;;;8.73;79.51;99676.47;112485;1193;60733;-22
2021/09/28 05:18:49;;;;;;;13.60;5.20;;;;;;;9.21;78.37;99672.23;112469;1191;74324;-22
2021/09/28 05:21:17;;;;;;;6.20;3.40;;;;;;;9.22;77.80;99667.28;112599;1191;75659;-22
2021/09/28 05:23:46;;;;;;;10.90;4.50;;;;;;;9.12;78.29;99669.54;112511;1190;74029;-22
2021/09/28 05:26:15;;;;;;;22.90;11.40;;;;;;;9.06;78.69;99672.48;112532;1191;60796;-22
2021/09/28 05:28:43;;;;;;;19.90;9.70;;;;;;;9.08;78.60;99673.20;112500;1190;61738;-22
2021/09/28 05:31:11;;;;;;;15.10;5.90;;;;;;;8.81;79.86;99678.75;112485;1191;75068;-22
2021/09/28 05:33:41;;;;;;;12.70;5.40;;;;;;;8.64;80.66;99679.15;112452;1190;75285;-22
2021/09/28 05:36:09;;;;;;;11.40;5.20;;;;;;;9.01;79.59;99681.09;112575;1193;73285;-22
2021/09/28 05:38:37;;;;;;;19.10;9.50;;;;;;;9.45;78.02;99680.34;112552;1190;60810;-22
2021/09/28 05:41:09;;;;;;;12.10;7.50;;;;;;;9.71;76.79;99678.23;112519;1191;61719;-22
2021/09/28 05:43:39;;;;;;;16.70;9.50;;;;;;;9.26;78.33;99680.18;112510;1191;75521;-22
2021/09/28 05:46:07;;;;;;;8.10;3.90;;;;;;;9.18;78.76;99685.23;112476;1190;75952;-23
2021/09/28 05:48:36;;;;;;;15.60;5.20;;;;;;;9.13;78.70;99691.09;112577;1181;74136;-22
2021/09/28 05:51:15;;;;;;;18.70;10.50;;;;;;;8.81;80.44;99696.08;112497;1193;62115;-22
2021/09/28 05:53:45;;;;;;;6.30;3.80;;;;;;;9.38;78.65;99691.02;112447;1193;60924;-22
2021/09/28 05:56:14;;;;;;;15.30;13.40;;;;;;;9.90;76.46;99690.86;112412;1190;75185;-22
2021/09/28 05:58:42;;;;;;;4.20;3.10;;;;;;;9.88;76.08;99695.83;112553;1191;75710;-22
2021/09/28 06:01:11;;;;;;;7.20;4.30;;;;;;;9.94;75.91;99688.65;112542;1191;73034;-22
2021/09/28 06:03:39;;;;;;;5.60;3.40;;;;;;;9.80;76.20;99693.64;112525;1190;61441;-22
2021/09/28 06:06:07;;;;;;;4.60;2.80;;;;;;;9.63;76.96;99695.59;112469;1190;60816;-24
2021/09/28 06:08:38;;;;;;;7.60;3.90;;;;;;;9.86;76.81;99696.69;112517;1190;75149;-22
2021/09/28 06:11:07;;;;;;;5.60;3.00;;;;;;;10.39;75.13;99698.23;112269;1192;74258;-23
2021/09/28 06:13:36;;;;;;;6.90;3.10;;;;;;;10.55;74.16;99697.30;112514;1190;71241;-21
2021/09/28 06:16:04;;;;;;;8.00;3.50;;;;;;;10.03;75.70;99703.34;112462;1190;61418;-23
2021/09/28 06:18:53;;;;;;;4.30;3.30;;;;;;;9.94;76.03;99706.72;112474;1190;61477;-22
2021/09/28 06:21:41;;;;;;;8.00;3.70;;;;;;;9.67;77.30;99705.61;112451;1190;75185;-23
2021/09/28 06:24:10;;;;;;;4.50;2.10;;;;;;;9.34;78.62;99708.61;112542;1190;74656;-22
2021/09/28 06:26:38;;;;;;;4.00;2.00;;;;;;;10.06;77.12;99710.38;112459;1192;74002;-22
2021/09/28 06:29:07;;;;;;;11.20;5.80;;;;;;;10.64;74.85;99706.23;112490;1193;60770;-22
2021/09/28 06:31:35;;;;;;;8.20;4.10;;;;;;;10.77;74.48;99712.42;112583;1191;60879;-23
2021/09/28 06:34:04;;;;;;;6.60;3.50;;;;;;;10.76;74.12;99712.86;112490;1191;75245;-23
2021/09/28 06:36:33;;;;;;;6.30;3.10;;;;;;;10.18;75.72;99714.93;112513;1190;74697;-22
2021/09/28 06:39:11;;;;;;;6.90;3.20;;;;;;;10.31;75.63;99717.38;112460;1193;73704;-22
2021/09/28 06:41:40;;;;;;;4.50;2.10;;;;;;;10.19;76.37;99719.28;112396;1192;62370;-22
2021/09/28 06:44:09;;;;;;;6.70;2.00;;;;;;;10.60;75.20;99716.61;112378;1192;60802;-23
2021/09/28 06:46:37;;;;;;;4.90;2.80;;;;;;;11.20;72.96;99722.05;112459;1193;75219;-23
2021/09/28 06:49:06;;;;;;;7.10;3.40;;;;;;;11.39;72.05;99723.80;112467;1190;74628;-23
2021/09/28 06:51:34;;;;;;;7.50;2.90;;;;;;;11.46;72.15;99724.54;112466;1192;74449;-23
2021/09/28 06:54:03;;;;;;;4.80;3.00;;;;;;;11.41;72.04;99726.06;112433;1193;61677;-24
2021/09/28 06:56:32;;;;;;;7.00;2.60;;;;;;;11.27;72.61;99721.54;112267;1191;61513;-22
2021/09/28 06:59:00;;;;;;;3.90;2.40;;;;;;;11.02;73.06;99722.66;112401;1190;74316;-22
2021/09/28 07:01:29;;;;;;;7.90;2.80;;;;;;;10.98;73.69;99727.49;112535;1190;75539;-22
2021/09/28 07:03:58;;;;;;;6.20;2.50;;;;;;;11.35;72.79;99728.92;112534;1190;75349;-23
2021/09/28 07:06:27;;;;;;;7.80;2.60;;;;;;;11.62;71.59;99735.00;112409;1190;61218;-23
2021/09/28 07:08:56;;;;;;;8.60;4.40;;;;;;;11.60;71.96;99735.44;112498;1190;61673;-23
2021/09/28 07:11:24;;;;;;;7.50;3.00;;;;;;;11.55;72.07;99738.66;112530;1190;75214;-23
2021/09/28 07:14:06;;;;;;;5.00;3.10;;;;;;;11.50;72.25;99744.35;112450;1193;74897;-23
2021/09/28 07:16:54;;;;;;;5.20;3.70;;;;;;;11.53;72.01;99744.48;112504;1190;75030;-23
2021/09/28 07:19:24;;;;;;;4.00;2.30;;;;;;;11.67;71.88;99743.81;112550;1190;62359;-23
2021/09/28 07:21:52;;;;;;;6.50;3.30;;;;;;;12.35;70.81;99746.55;112554;1193;60780;-23
2021/09/28 07:24:20;;;;;;;5.80;3.40;;;;;;;12.75;68.96;99746.56;112533;1190;74189;-22
2021/09/28 07:26:51;;;;;;;4.10;2.60;;;;;;;13.00;68.56;99749.48;112441;1193;75378;-22
2021/09/28 07:29:19;;;;;;;7.10;4.20;;;;;;;12.90;68.22;99755.61;112500;1193;73311;-21
2021/09/28 07:31:49;;;;;;;6.30;3.20;;;;;;;12.32;69.55;99756.52;112550;1190;61609;-22
2021/09/28 07:34:18;;;;;;;3.30;2.70;;;;;;;12.35;69.96;99755.79;112410;1191;60889;-21
2021/09/28 07:36:46;;;;;;;6.20;2.60;;;;;;;12.38;69.86;99753.30;112394;1193;75197;-22
2021/09/28 07:39:15;;;;;;;6.40;3.30;;;;;;;12.47;70.21;99752.72;112484;1190;75639;-22
2021/09/28 07:41:44;;;;;;;2.40;1.70;;;;;;;12.24;70.95;99752.98;112500;1190;72261;-22
2021/09/28 07:44:13;;;;;;;2.10;1.50;;;;;;;13.04;68.64;99755.04;112491;1193;60818;-22
2021/09/28 07:46:42;;;;;;;7.30;2.80;;;;;;;13.32;66.72;99752.50;112565;1190;60797;-22
2021/09/28 07:49:10;;;;;;;5.80;4.50;;;;;;;13.21;67.10;99755.13;112514;1193;73821;-22
2021/09/28 07:51:38;;;;;;;10.90;6.10;;;;;;;12.85;67.78;99754.65;112470;1190;74679;-22
2021/09/28 07:54:07;;;;;;;4.10;3.20;;;;;;;12.50;69.32;99753.76;112473;1193;73843;-23
2021/09/28 07:56:35;;;;;;;9.00;3.40;;;;;;;12.51;69.52;99752.48;112448;1192;61260;-22
2021/09/28 07:59:07;;;;;;;9.20;5.00;;;;;;;12.93;68.50;99752.77;112511;1192;60783;-22
2021/09/28 08:01:36;;;;;;;13.00;7.20;;;;;;;12.73;68.53;99752.50;112530;1192;75416;-22
2021/09/28 08:04:06;;;;;;;5.00;3.40;;;;;;;13.12;67.83;99746.61;112331;1191;76329;-22
2021/09/28 08:06:35;;;;;;;4.60;3.30;;;;;;;13.41;66.45;99747.20;112459;1191;74239;-22
2021/09/28 08:09:03;;;;;;;9.70;3.70;;;;;;;13.48;66.02;99739.88;112431;1190;61225;-22
2021/09/28 08:11:52;;;;;;;8.40;3.40;;;;;;;13.20;66.26;99741.21;112280;1192;62880;-22
2021/09/28 08:14:20;;;;;;;4.90;2.40;;;;;;;13.24;65.54;99743.19;112282;1192;75298;-23
2021/09/28 08:16:49;;;;;;;2.60;2.20;;;;;;;13.66;64.09;99734.35;112489;1190;74224;-22
2021/09/28 08:19:22;;;;;;;2.50;1.80;;;;;;;14.00;62.88;99739.23;112479;1190;73338;-22
2021/09/28 08:21:57;;;;;;;3.80;2.70;;;;;;;14.17;61.66;99730.44;112485;1192;60815;-22
2021/09/28 08:24:29;;;;;;;4.30;2.10;;;;;;;13.99;60.83;99734.80;112544;1190;60822;-24
2021/09/28 08:29:44;;;;;;;4.30;2.90;;;;;;;13.81;60.79;99745.36;112446;1193;75563;-22
2021/09/28 08:32:13;;;;;;;8.00;3.30;;;;;;;13.47;60.64;99744.27;112535;1190;73338;-22
2021/09/28 08:34:42;;;;;;;3.70;2.20;;;;;;;13.66;61.05;99745.88;112464;1191;60939;-22
2021/09/28 08:37:10;;;;;;;2.90;2.10;;;;;;;13.91;59.84;99745.40;112513;1193;60814;-22
2021/09/28 08:39:39;;;;;;;2.40;2.00;;;;;;;14.10;59.56;99741.66;112475;1192;74209;-22
2021/09/28 08:42:07;;;;;;;3.30;2.20;;;;;;;14.16;58.72;99744.71;112510;1193;74638;-21
2021/09/28 08:44:36;;;;;;;2.40;1.80;;;;;;;14.15;58.36;99747.20;112498;1190;73935;-21
2021/09/28 08:47:04;;;;;;;2.60;2.10;;;;;;;13.92;58.53;99748.79;112584;1190;60812;-25
2021/09/28 08:49:35;;;;;;;5.10;1.90;;;;;;;13.93;58.84;99751.84;112490;1191;61145;-23
2021/09/28 08:52:04;;;;;;;2.30;2.00;;;;;;;14.22;58.65;99747.52;112406;1192;75241;-22
2021/09/28 08:54:32;;;;;;;2.90;1.90;;;;;;;14.31;56.61;99749.89;112533;1190;74645;-23
2021/09/28 08:57:01;;;;;;;3.10;1.90;;;;;;;14.30;56.08;99753.08;112550;1190;74141;-23
2021/09/28 08:59:49;;;;;;;2.40;1.60;;;;;;;14.21;55.83;99748.13;112524;1190;60895;-23
2021/09/28 09:02:18;;;;;;;3.40;1.70;;;;;;;14.35;55.12;99749.67;112471;1193;60915;-22
2021/09/28 09:05:01;;;;;;;4.40;2.20;;;;;;;14.56;55.06;99748.44;112556;1190;74112;-22
2021/09/28 09:07:29;;;;;;;6.90;3.00;;;;;;;14.90;55.32;99747.58;112424;1190;75412;-22
2021/09/28 09:09:57;;;;;;;4.10;2.90;;;;;;;14.62;55.33;99745.77;112497;1190;73978;-21
2021/09/28 09:12:34;;;;;;;2.90;2.00;;;;;;;14.84;54.71;99745.69;112503;1190;61450;-22
2021/09/28 09:15:25;;;;;;;13.00;2.50;;;;;;;15.10;54.28;99748.64;112461;1193;61551;-22
2021/09/28 09:17:56;;;;;;;3.10;2.60;;;;;;;15.31;53.81;99745.58;112263;1191;73815;-22
2021/09/28 09:20:38;;;;;;;17.30;3.50;;;;;;;15.08;53.79;99744.08;112489;1193;75697;-22
2021/09/28 09:23:25;;;;;;;2.90;1.70;;;;;;;15.24;53.40;99746.16;112310;1192;72745;-22
2021/09/28 09:26:10;;;;;;;2.60;1.90;;;;;;;15.54;51.59;99746.10;112528;1190;61888;-22
2021/09/28 09:28:55;;;;;;;2.00;1.50;;;;;;;15.44;50.75;99744.38;112490;1190;60799;-21
2021/09/28 09:31:34;;;;;;;4.30;1.50;;;;;;;15.61;49.61;99741.29;112494;1193;74368;-22
2021/09/28 09:34:10;;;;;;;3.40;1.50;;;;;;;15.27;49.77;99744.86;112447;1191;74356;-22
2021/09/28 09:36:38;;;;;;;3.40;2.20;;;;;;;15.81;50.98;99744.02;112416;1192;73189;-22
2021/09/28 09:39:11;;;;;;;2.70;2.00;;;;;;;16.61;49.80;99739.76;112478;1193;60802;-22
2021/09/28 09:41:40;;;;;;;4.90;2.00;;;;;;;17.08;48.53;99742.96;112460;1191;60895;-23
2021/09/28 09:44:10;;;;;;;5.30;1.90;;;;;;;17.24;47.27;99742.14;112414;1190;75154;-23
2021/09/28 09:46:41;;;;;;;2.40;2.00;;;;;;;17.29;47.65;99745.61;112389;1190;75646;-23
2021/09/28 09:49:11;;;;;;;1.90;1.10;;;;;;;17.29;47.59;99746.73;112547;1190;74057;-23
2021/09/28 09:51:40;;;;;;;3.20;2.70;;;;;;;17.01;48.06;99751.66;112427;1190;60822;-23
2021/09/28 09:54:09;;;;;;;5.40;3.30;;;;;;;17.19;46.59;99748.77;112535;1190;60758;-23
2021/09/28 09:56:48;;;;;;;1.60;1.30;;;;;;;17.49;45.69;99748.23;112508;1190;75000;-23
2021/09/28 09:59:19;;;;;;;1.80;1.40;;;;;;;17.22;43.82;99749.27;112244;1193;75636;-23
2021/09/28 10:01:48;;;;;;;1.80;1.60;;;;;;;16.70;47.29;99749.53;112218;1191;73490;-23
2021/09/28 10:04:18;;;;;;;2.60;1.60;;;;;;;16.77;46.97;99747.79;112489;1193;60805;-22
2021/09/28 10:06:46;;;;;;;2.40;1.50;;;;;;;17.34;45.07;99750.75;112356;1193;61454;-22
2021/09/28 10:09:20;;;;;;;6.20;1.80;;;;;;;17.84;43.86;99744.81;112501;1190;74355;-22
2021/09/28 10:11:52;;;;;;;8.90;4.70;;;;;;;17.69;42.51;99751.02;112363;1192;74548;-22
2021/09/28 10:14:42;;;;;;;9.60;3.50;;;;;;;17.15;42.57;99751.56;112422;1190;74146;-23
2021/09/28 10:17:30;;;;;;;3.80;1.50;;;;;;;16.86;44.00;99749.61;112528;1190;61476;-23
2021/09/28 10:20:01;;;;;;;4.20;2.50;;;;;;;16.40;44.81;99748.55;112480;1193;60829;-23
2021/09/28 10:22:33;;;;;;;3.80;2.30;;;;;;;16.43;45.40;99754.21;112445;1193;75057;-22
2021/09/28 10:25:24;;;;;;;4.70;2.80;;;;;;;16.13;45.38;99750.05;112515;1190;74632;-22
2021/09/28 10:27:56;;;;;;;5.60;3.40;;;;;;;15.88;47.15;99751.58;112476;1192;73042;-22
2021/09/28 10:30:31;;;;;;;3.80;2.60;;;;;;;15.91;48.09;99751.13;112469;1181;61900;-22
2021/09/28 10:33:03;;;;;;;4.00;1.90;;;;;;;16.10;48.83;99750.79;112475;1193;61654;-22
2021/09/28 10:35:34;;;;;;;2.70;1.90;;;;;;;16.28;48.76;99751.11;112446;1192;75214;-22
2021/09/28 10:38:04;;;;;;;2.80;2.00;;;;;;;16.43;48.37;99753.48;112374;1192;74473;-22
2021/09/28 10:40:33;;;;;;;2.30;1.90;;;;;;;16.63;47.38;99758.62;112484;1190;74099;-22
2021/09/28 10:43:05;;;;;;;5.50;3.00;;;;;;;16.29;49.92;99754.79;112516;1190;60789;-22
2021/09/28 10:45:36;;;;;;;3.20;2.20;;;;;;;15.60;51.95;99757.47;112456;1193;60802;-23
2021/09/28 10:48:09;;;;;;;10.90;5.90;;;;;;;14.97;53.49;99753.58;112561;1190;72541;-21
2021/09/28 10:50:39;;;;;;;5.40;3.20;;;;;;;14.58;54.80;99753.29;112429;1190;75368;-21
2021/09/28 10:53:20;;;;;;;9.20;5.00;;;;;;;13.89;56.56;99762.13;112395;1190;72599;-24
2021/09/28 10:55:57;;;;;;;10.90;7.30;;;;;;;13.85;57.31;99766.80;112515;1190;60783;-21
2021/09/28 10:58:27;;;;;;;7.00;3.30;;;;;;;13.60;58.21;99770.12;112496;1190;60776;-23
2021/09/28 11:00:55;;;;;;;4.50;2.90;;;;;;;13.38;58.60;99769.98;112246;1193;72575;-22
2021/09/28 11:03:50;;;;;;;7.80;5.00;;;;;;;13.39;58.68;99771.45;112475;1190;75255;-22
2021/09/28 11:06:45;;;;;;;3.30;2.60;;;;;;;12.94;60.43;99771.22;112420;1190;72628;-22
2021/09/28 11:09:14;;;;;;;6.80;4.30;;;;;;;12.92;60.87;99769.95;112460;1190;60859;-22
2021/09/28 11:11:52;;;;;;;5.70;3.10;;;;;;;12.69;61.62;99772.45;112473;1194;60805;-21
2021/09/28 11:14:39;;;;;;;4.80;3.40;;;;;;;12.84;61.42;99779.48;112399;1190;75315;-21
2021/09/28 11:17:13;;;;;;;7.00;3.20;;;;;;;12.86;61.38;99783.11;112485;1190;76190;-22
2021/09/28 11:19:42;;;;;;;4.50;3.00;;;;;;;12.68;61.22;99787.16;112223;1193;74234;-22
2021/09/28 11:22:16;;;;;;;3.90;2.90;;;;;;;12.44;62.40;99790.27;112483;1193;60870;-22
2021/09/28 11:24:44;;;;;;;5.50;2.90;;;;;;;12.27;62.88;99788.60;112392;1193;60818;-22
2021/09/28 11:27:13;;;;;;;6.50;3.90;;;;;;;12.33;63.14;99789.52;112519;1191;75152;-22
2021/09/28 11:29:42;;;;;;;8.30;4.50;;;;;;;12.35;62.88;99790.10;112538;1193;75664;-22
2021/09/28 11:32:10;;;;;;;6.30;4.10;;;;;;;12.34;63.26;99788.44;112536;1193;74063;-22
2021/09/28 11:34:40;;;;;;;6.30;4.10;;;;;;;12.43;62.52;99788.08;112487;1193;61594;-21
2021/09/28 11:37:24;;;;;;;5.20;3.30;;;;;;;12.51;62.10;99789.33;112218;1192;60834;-23
2021/09/28 11:39:53;;;;;;;4.90;2.60;;;;;;;12.66;61.87;99789.80;112459;1192;74229;-22
2021/09/28 11:42:23;;;;;;;3.70;2.80;;;;;;;12.65;61.87;99790.02;112194;1193;72956;-23
2021/09/28 11:44:52;;;;;;;5.20;2.70;;;;;;;12.52;62.58;99789.98;112219;1193;74324;-23
2021/09/28 11:47:24;;;;;;;9.30;4.90;;;;;;;12.62;62.31;99791.66;112414;1184;61154;-22
2021/09/28 11:49:56;;;;;;;3.00;2.10;;;;;;;12.47;62.97;99792.61;112153;1195;60768;-22